createdAt,value
2022-10-24T00:11:15.908Z,21.01
2022-10-24T00:18:04.754Z,21.00
2022-10-24T00:24:50.374Z,21.02
2022-10-24T00:31:35.969Z,21.05
2022-10-24T00:38:23.895Z,21.04
2022-10-24T00:45:51.520Z,21.04
2022-10-24T00:52:40.996Z,20.50
2022-10-24T00:59:30.615Z,21.08
2022-10-24T01:06:37.357Z,20.96
2022-10-24T01:13:34.362Z,21.02
2022-10-24T01:20:50.439Z,20.90
2022-10-24T01:27:59.088Z,20.97
2022-10-24T01:34:53.621Z,20.98
2022-10-24T01:41:39.522Z,21.02
2022-10-24T01:48:28.632Z,21.01
2022-10-24T01:55:17.001Z,21.00
2022-10-24T02:02:08.562Z,21.02
2022-10-24T02:08:59.881Z,20.25
2022-10-24T02:15:55.237Z,20.99
2022-10-24T02:22:50.759Z,20.98
2022-10-24T02:29:44.966Z,20.88
2022-10-24T02:36:36.009Z,20.46
2022-10-24T02:43:25.035Z,20.90
2022-10-24T03:04:01.076Z,20.80
2022-10-24T03:10:46.770Z,20.82
2022-10-24T03:17:32.270Z,20.75
2022-10-24T03:24:31.028Z,20.68
2022-10-24T03:31:25.655Z,20.61
2022-10-24T03:38:11.036Z,20.55
2022-10-24T03:44:59.012Z,20.48
2022-10-24T03:51:44.417Z,20.42
2022-10-24T03:58:30.248Z,20.41
2022-10-24T04:05:18.296Z,20.37
2022-10-24T04:12:03.670Z,20.41
2022-10-24T04:18:49.371Z,20.48
2022-10-24T04:25:37.337Z,20.53
2022-10-24T04:32:22.732Z,20.54
2022-10-24T04:39:08.621Z,20.55
2022-10-24T04:45:56.836Z,20.45
2022-10-24T04:52:42.881Z,20.47
2022-10-24T04:59:28.272Z,20.56
2022-10-24T05:06:16.285Z,20.50
2022-10-24T05:13:01.890Z,20.42
2022-10-24T05:19:47.259Z,20.49
2022-10-24T05:26:35.340Z,20.46
2022-10-24T05:33:20.793Z,20.43
2022-10-24T05:40:06.965Z,20.38
2022-10-24T05:46:55.358Z,20.27
2022-10-24T05:53:40.801Z,20.31
2022-10-24T06:00:26.853Z,20.29
2022-10-24T06:07:14.964Z,20.28
2022-10-24T06:14:00.337Z,20.01
2022-10-24T06:20:50.722Z,20.17
2022-10-24T06:27:40.812Z,20.09
2022-10-24T06:34:26.468Z,20.14
2022-10-24T06:41:14.180Z,20.06
2022-10-24T06:48:02.076Z,20.09
2022-10-24T06:54:47.405Z,20.07
2022-10-24T07:01:32.883Z,20.09
2022-10-24T07:08:21.078Z,20.12
2022-10-24T07:15:07.383Z,20.21
2022-10-24T07:21:52.537Z,20.34
2022-10-24T07:28:42.220Z,20.16
2022-10-24T07:35:27.633Z,20.20
2022-10-24T07:42:15.000Z,20.22
2022-10-24T07:49:03.119Z,20.15
2022-10-24T07:55:48.755Z,20.17
2022-10-24T08:02:34.081Z,20.22
2022-10-24T08:09:22.076Z,20.18
2022-10-24T08:16:09.997Z,20.21
2022-10-24T08:22:55.806Z,20.32
2022-10-24T08:29:43.872Z,20.38
2022-10-24T08:36:31.908Z,20.42
2022-10-24T08:43:17.379Z,20.43
2022-10-24T08:50:09.547Z,20.28
2022-10-24T08:56:59.911Z,20.33
2022-10-24T09:03:56.009Z,20.41
2022-10-24T09:10:53.680Z,20.41
2022-10-24T09:17:42.312Z,20.46
2022-10-24T09:24:40.714Z,20.83
2022-10-24T09:31:30.333Z,20.88
2022-10-24T09:38:36.161Z,21.17
2022-10-24T09:45:35.005Z,21.32
2022-10-24T09:52:26.169Z,21.53
2022-10-24T09:59:36.242Z,21.71
2022-10-24T10:06:24.141Z,21.97
2022-10-24T10:13:24.708Z,22.18
2022-10-24T10:20:26.905Z,22.43
2022-10-24T10:27:30.403Z,22.50
2022-10-24T10:34:26.231Z,22.70
2022-10-24T10:41:22.380Z,22.79
2022-10-24T10:48:26.396Z,22.83
2022-10-24T10:55:28.200Z,22.88
2022-10-24T11:02:49.280Z,23.00
2022-10-24T11:09:44.271Z,22.55
2022-10-24T11:16:34.502Z,22.97
2022-10-24T11:23:29.209Z,22.98
2022-10-24T11:30:20.125Z,23.19
2022-10-24T11:37:17.839Z,23.18
2022-10-24T11:44:13.065Z,23.20
2022-10-24T11:51:04.098Z,23.11
2022-10-24T11:57:57.949Z,23.02
2022-10-24T12:05:04.566Z,22.91
2022-10-24T12:12:27.558Z,22.98
2022-10-24T12:19:20.959Z,22.74
2022-10-24T12:26:18.595Z,23.04
2022-10-24T12:33:15.230Z,22.97
2022-10-24T12:40:03.851Z,23.18
2022-10-24T12:46:58.277Z,23.27
2022-10-24T12:54:22.276Z,23.41
2022-10-24T13:01:27.267Z,23.55
2022-10-24T13:08:35.579Z,23.64
2022-10-24T13:15:43.082Z,23.64
2022-10-24T13:22:39.179Z,23.75
2022-10-24T13:30:00.440Z,23.95
2022-10-24T13:36:48.230Z,23.97
2022-10-24T13:43:36.475Z,23.96
2022-10-24T13:50:26.699Z,23.89
2022-10-24T13:57:31.342Z,24.17
2022-10-24T14:04:19.374Z,24.24
2022-10-24T14:11:08.419Z,24.27
2022-10-24T14:18:00.462Z,24.36
2022-10-24T14:24:50.774Z,24.60
2022-10-24T14:31:38.369Z,24.76
2022-10-24T14:38:25.531Z,24.96
2022-10-24T14:45:26.928Z,25.08
2022-10-24T14:52:17.998Z,25.19
2022-10-24T14:59:07.176Z,25.04
2022-10-24T15:06:10.485Z,24.88
2022-10-24T15:13:02.730Z,24.91
2022-10-24T15:19:48.988Z,24.91
2022-10-24T15:26:40.661Z,24.85
2022-10-24T15:33:26.001Z,24.97
2022-10-24T15:40:21.443Z,24.90
2022-10-24T15:47:09.573Z,24.97
2022-10-24T15:53:56.372Z,25.03
2022-10-24T16:00:42.327Z,25.01
2022-10-24T16:07:30.343Z,25.02
2022-10-24T16:14:17.453Z,25.13
2022-10-24T16:21:03.797Z,25.06
2022-10-24T16:27:52.099Z,25.10
2022-10-24T16:34:37.609Z,25.04
2022-10-24T16:41:26.286Z,25.06
2022-10-24T16:48:14.428Z,24.78
2022-10-24T16:54:59.900Z,24.91
2022-10-24T17:01:45.807Z,24.72
2022-10-24T17:08:34.067Z,24.69
2022-10-24T17:15:22.392Z,24.55
2022-10-24T17:22:08.878Z,24.36
2022-10-24T17:28:57.326Z,24.29
2022-10-24T17:35:50.854Z,24.09
2022-10-24T17:42:37.058Z,24.03
2022-10-24T17:49:25.017Z,23.80
2022-10-24T18:03:19.395Z,23.53
2022-10-24T18:10:08.313Z,23.48
2022-10-24T18:16:54.403Z,23.17
2022-10-24T18:23:40.457Z,23.05
2022-10-24T18:30:28.245Z,23.38
2022-10-24T18:38:18.687Z,22.91
2022-10-24T18:45:05.747Z,22.40
2022-10-24T18:52:03.505Z,22.37
2022-10-24T18:58:57.224Z,22.10
2022-10-24T19:05:51.899Z,21.78
2022-10-24T19:12:40.478Z,21.70
2022-10-24T19:19:34.538Z,21.62
2022-10-24T19:26:20.269Z,21.56
2022-10-24T19:33:05.620Z,21.27
2022-10-24T19:39:53.641Z,21.03
2022-10-24T19:46:39.000Z,20.76
2022-10-24T19:53:24.409Z,20.69
2022-10-24T20:00:14.524Z,20.46
2022-10-24T20:06:59.909Z,20.31
2022-10-24T20:13:45.696Z,20.25
2022-10-24T20:20:36.577Z,20.17
2022-10-24T20:27:24.536Z,20.02
2022-10-24T20:34:12.041Z,19.75
2022-10-24T20:41:04.859Z,19.64
2022-10-24T20:47:50.229Z,19.58
2022-10-24T20:54:35.644Z,19.45
2022-10-24T21:01:26.205Z,19.26
2022-10-24T21:08:11.712Z,19.22
2022-10-24T21:14:57.251Z,19.06
2022-10-24T21:21:45.330Z,18.42
2022-10-24T21:28:31.807Z,18.86
2022-10-24T21:35:17.113Z,18.88
2022-10-24T21:42:05.479Z,18.67
2022-10-24T21:48:52.712Z,18.55
2022-10-24T21:55:38.048Z,18.40
2022-10-24T22:02:26.139Z,18.37
2022-10-24T22:09:15.839Z,18.26
2022-10-24T22:16:02.044Z,18.25
2022-10-24T22:22:49.978Z,18.17
2022-10-24T22:29:35.397Z,18.20
2022-10-24T22:36:42.989Z,18.15
2022-10-24T22:43:31.885Z,18.14
2022-10-24T22:50:48.425Z,18.03
2022-10-24T23:04:49.880Z,17.90
2022-10-24T23:11:36.187Z,17.88
2022-10-24T23:18:22.465Z,17.74
2022-10-24T23:25:13.860Z,17.73
2022-10-24T23:32:00.154Z,17.78
2022-10-24T23:38:47.806Z,18.11
2022-10-24T23:45:40.577Z,17.97
2022-10-24T23:52:35.779Z,18.10
2022-10-24T23:59:21.125Z,18.00
